メインページ
METAR-TAF:

METAR-TAF

空港 :

フェアバンクス, アラスカ州, アメリカ合衆国

フェアバンクス国際空港

緯度: 64-48-14N, 経度: 147-52-34W, 海抜: 132m

現時点の気象観測

当レポートは14分前の10:53(UTC)に作成
無風
気温 2°C
湿度 93%
気圧 1021 hPa
視程: 16.1km
高度4000ftの雲はほとんどない
高度10000ftの千切れ雲あり
高度20000ftの千切れ雲あり

METAR: PAFA 201053Z 00000KT 10SM FEW040 BKN100 BKN200 02/01 A3015 RMK AO2 SLP217 T00170011 $

時間: 03:07 (11:07 UTC)

予報

当レポートは5時間27分前の05:40(UTC)に作成
予報は20日の 06時(UTC)から 21日の 12時(UTC)まで有効
変向風 3kt
視程: 10km
高度3000ftの雲はほとんどない
高度10000ftの雲は散在している
高度25000ftの千切れ雲あり
20日の 2100時(UTC)から
変向風 3kt
視程: 10km
高度5000ftの千切れ雲あり
高度8000ftの曇り
近辺でにわか雨
21日の 0000時(UTC)から
変向風 3kt
視程: 10km
高度2500ftの雲は散在している
高度4000ftの千切れ雲あり
弱いにわか雨

TAF: PAFA 200540Z 2006/2112 VRB03KT P6SM FEW030 SCT100 BKN250 FM202100 VRB03KT P6SM VCSH BKN050 OVC080 FM210000 VRB03KT P6SM -SHRA SCT025 BKN040

4,000以上の空港の気象観測と天気予報(METAR報とTAF報)

利用可能な観測所は地図上に黄色い丸と赤い丸で示す。

丸の上にカーソルを重ねると観測所名を参照できる。

次にクリックすると気象観測と天気予報を参照できる。

マップの切り替え:黒色「×」印の緑ボタンをクリックして拡大、「-」印の緑ボタンをクリックして縮小、緑色の三角印をクリックして隣りの地図に切り替え


METAR-TAF: